Time;durP1;ratioP1;P1;durP2;ratioP2;P2;SDS_P1;SDS_P2;PMS_P1;PMS_P2;Temp;Humidity;BMP_temperature;BMP_pressure;BME280_temperature;BME280_humidity;BME280_pressure;Samples;Min_cycle;Max_cycle;Signal;HPM_P1;HPM_P2
2022/10/23 00:02:22;;;;;;;;;;;;;;;13.50;59.16;101025.25;5016495;28;20346;-81
2022/10/23 00:04:50;;;;;;;;;;;;;;;13.66;58.72;101033.34;5017701;28;19947;-82
2022/10/23 00:07:17;;;;;;;;;;;;;;;13.68;58.61;101031.31;5038628;28;19921;-84
2022/10/23 00:09:43;;;;;;;;;;;;;;;13.75;58.23;101033.34;5040286;28;19916;-83
2022/10/23 00:12:08;;;;;;;;;;;;;;;13.70;56.85;101034.69;5017177;28;19974;-83
2022/10/23 00:14:33;;;;;;;;;;;;;;;13.63;56.42;101041.78;5007721;28;20441;-85
2022/10/23 00:17:01;;;;;;;;;;;;;;;13.60;55.18;101033.19;5027389;28;19925;-84
2022/10/23 00:19:26;;;;;;;;;;;;;;;13.52;54.57;101039.44;5014821;28;19925;-82
2022/10/23 00:21:52;;;;;;;;;;;;;;;13.54;54.05;101036.59;5010497;28;19926;-82
2022/10/23 00:24:17;;;;;;;;;;;;;;;13.61;53.04;101041.13;5010336;28;19999;-82
2022/10/23 00:26:43;;;;;;;;;;;;;;;13.61;52.16;101037.59;5024242;28;20412;-81
2022/10/23 00:29:10;;;;;;;;;;;;;;;13.69;51.80;101034.84;5006550;28;19926;-81
2022/10/23 00:31:35;;;;;;;;;;;;;;;13.71;51.27;101025.56;5016011;28;19917;-83
2022/10/23 00:34:00;;;;;;;;;;;;;;;13.75;50.37;101025.22;5022490;28;20321;-82
2022/10/23 00:36:25;;;;;;;;;;;;;;;13.84;50.51;101035.00;5013934;28;19921;-83
2022/10/23 00:38:51;;;;;;;;;;;;;;;13.90;50.04;101037.00;5026905;28;20381;-81
2022/10/23 00:41:23;;;;;;;;;;;;;;;13.98;50.18;101018.06;4992470;28;19925;-81
2022/10/23 00:44:07;;;;;;;;;;;;;;;13.96;50.37;101014.69;5033967;28;19973;-81
2022/10/23 00:46:32;;;;;;;;;;;;;;;14.04;50.30;101009.22;5008236;28;20310;-81
2022/10/23 00:48:58;;;;;;;;;;;;;;;14.07;49.71;101011.59;5013166;28;19983;-81
2022/10/23 00:51:23;;;;;;;;;;;;;;;14.04;49.96;101006.53;5008626;28;20293;-81
2022/10/23 00:53:49;;;;;;;;;;;;;;;13.97;49.86;101010.94;5010090;28;19922;-81
2022/10/23 00:56:14;;;;;;;;;;;;;;;14.05;49.57;101000.13;5015743;28;20091;-83
2022/10/23 00:58:39;;;;;;;;;;;;;;;14.09;49.57;100993.34;5019163;28;19937;-83
2022/10/23 01:01:15;;;;;;;;;;;;;;;14.15;48.90;100989.94;5018356;28;19933;-82
2022/10/23 01:03:40;;;;;;;;;;;;;;;14.14;48.73;100988.25;5000656;28;19929;-82
2022/10/23 01:06:12;;;;;;;;;;;;;;;14.05;48.67;100986.59;5000668;28;19922;-83
2022/10/23 01:08:43;;;;;;;;;;;;;;;14.09;47.88;100978.97;5023957;28;19980;-83
2022/10/23 01:11:08;;;;;;;;;;;;;;;14.12;47.49;100968.66;5018959;28;19950;-80
2022/10/23 01:13:33;;;;;;;;;;;;;;;14.20;47.14;100961.53;5005678;28;19934;-83
2022/10/23 01:16:05;;;;;;;;;;;;;;;14.18;47.46;100953.56;5004502;28;19929;-83
2022/10/23 01:18:36;;;;;;;;;;;;;;;14.21;46.92;100957.78;5021478;28;19921;-81
2022/10/23 01:21:25;;;;;;;;;;;;;;;14.26;46.54;100968.94;5005934;28;19922;-82
2022/10/23 01:23:56;;;;;;;;;;;;;;;14.27;46.54;100968.75;5022046;28;19939;-81
2022/10/23 01:26:34;;;;;;;;;;;;;;;14.42;46.66;100970.69;5026218;28;19921;-81
2022/10/23 01:29:03;;;;;;;;;;;;;;;14.42;46.33;100976.94;5038270;28;19935;-82
2022/10/23 01:31:58;;;;;;;;;;;;;;;14.38;47.20;100975.63;5026355;28;20407;-81
2022/10/23 01:34:43;;;;;;;;;;;;;;;14.14;48.86;100980.16;5012423;28;20242;-82
2022/10/23 01:37:10;;;;;;;;;;;;;;;14.14;49.59;100988.25;5019534;28;19972;-81
2022/10/23 01:39:37;;;;;;;;;;;;;;;14.12;50.08;100982.19;5008113;28;20356;-84
2022/10/23 01:42:12;;;;;;;;;;;;;;;13.89;51.69;100973.16;5031838;28;20007;-85
2022/10/23 01:44:37;;;;;;;;;;;;;;;13.63;52.61;100959.91;5015489;28;19920;-81
2022/10/23 01:47:04;;;;;;;;;;;;;;;13.45;53.51;100966.34;5023088;28;20286;-82
2022/10/23 01:49:30;;;;;;;;;;;;;;;13.13;54.80;100967.22;5008945;28;20454;-82
2022/10/23 01:51:57;;;;;;;;;;;;;;;13.20;54.83;100965.50;5005108;28;19974;-81
2022/10/23 01:54:23;;;;;;;;;;;;;;;13.13;54.82;100964.50;5040954;28;20155;-82
2022/10/23 01:56:49;;;;;;;;;;;;;;;13.08;55.10;100956.91;5007047;28;20004;-82
2022/10/23 01:59:20;;;;;;;;;;;;;;;13.06;55.51;100968.91;5006603;28;19940;-83
2022/10/23 02:01:46;;;;;;;;;;;;;;;12.96;55.83;100974.47;5023536;28;19921;-82
2022/10/23 02:04:13;;;;;;;;;;;;;;;12.65;56.80;100971.59;5011776;28;19990;-83
2022/10/23 02:06:39;;;;;;;;;;;;;;;12.50;57.33;100979.50;5005154;28;19935;-83
2022/10/23 02:09:05;;;;;;;;;;;;;;;12.43;57.21;100979.34;5023814;28;20047;-83
2022/10/23 02:11:32;;;;;;;;;;;;;;;12.49;56.87;100974.28;5026456;28;19925;-83
2022/10/23 02:14:02;;;;;;;;;;;;;;;12.29;56.93;100969.19;5011068;28;19922;-83
2022/10/23 02:17:06;;;;;;;;;;;;;;;12.27;56.46;100968.50;5026811;28;19929;-81
2022/10/23 02:19:54;;;;;;;;;;;;;;;12.41;55.30;100973.25;5038135;28;19921;-81
2022/10/23 02:22:19;;;;;;;;;;;;;;;12.50;54.79;100967.88;5011286;28;19925;-82
2022/10/23 02:24:46;;;;;;;;;;;;;;;12.48;54.72;100964.50;5031397;28;19931;-82
2022/10/23 02:27:15;;;;;;;;;;;;;;;12.45;54.47;100976.44;5027108;28;19991;-83
2022/10/23 02:29:45;;;;;;;;;;;;;;;12.47;54.18;100979.81;5035856;28;19932;-83
2022/10/23 02:32:10;;;;;;;;;;;;;;;12.59;53.61;100977.66;5021554;28;20352;-83
2022/10/23 02:34:36;;;;;;;;;;;;;;;12.62;53.55;100971.94;5034159;28;19952;-82
2022/10/23 02:37:02;;;;;;;;;;;;;;;12.66;53.17;100975.97;5030315;28;19925;-82
2022/10/23 02:39:27;;;;;;;;;;;;;;;12.80;52.50;100964.53;5037195;28;19921;-82
2022/10/23 02:41:53;;;;;;;;;;;;;;;12.91;52.06;100960.66;5029702;28;20249;-83
2022/10/23 02:44:36;;;;;;;;;;;;;;;12.87;51.92;100964.69;5030176;28;19917;-82
2022/10/23 02:47:05;;;;;;;;;;;;;;;12.99;51.37;100965.19;5036212;28;19987;-82
2022/10/23 02:49:33;;;;;;;;;;;;;;;13.04;51.22;100973.63;5030344;28;19921;-81
2022/10/23 02:51:58;;;;;;;;;;;;;;;13.19;50.96;100980.03;5010930;28;19974;-82
2022/10/23 02:54:32;;;;;;;;;;;;;;;13.22;50.61;100982.38;5021985;28;20007;-82
2022/10/23 02:57:20;;;;;;;;;;;;;;;13.32;50.30;100976.00;5015874;28;20375;-81
2022/10/23 02:59:46;;;;;;;;;;;;;;;13.38;50.15;100970.75;5043178;28;20455;-82
2022/10/23 03:02:26;;;;;;;;;;;;;;;13.55;49.71;100962.63;5038672;28;19991;-82
2022/10/23 03:04:51;;;;;;;;;;;;;;;13.49;49.54;100970.41;5042068;28;19951;-83
2022/10/23 03:07:17;;;;;;;;;;;;;;;13.61;49.27;100984.38;5029674;28;19917;-83
2022/10/23 03:09:42;;;;;;;;;;;;;;;13.60;49.12;100980.00;5034728;28;19924;-83
2022/10/23 03:12:07;;;;;;;;;;;;;;;13.70;48.77;100983.34;5012644;28;19921;-82
2022/10/23 03:14:35;;;;;;;;;;;;;;;13.79;48.60;100977.91;5024720;28;19920;-84
2022/10/23 03:17:01;;;;;;;;;;;;;;;13.86;48.33;100979.75;5038805;28;19991;-83
2022/10/23 03:19:26;;;;;;;;;;;;;;;13.88;48.54;100979.56;5017262;28;19949;-81
2022/10/23 03:21:53;;;;;;;;;;;;;;;13.93;48.24;100969.94;5025518;28;19921;-84
2022/10/23 03:24:19;;;;;;;;;;;;;;;13.93;48.27;100971.78;5038265;28;19928;-83
2022/10/23 03:26:44;;;;;;;;;;;;;;;13.92;48.52;100967.38;5029150;28;20008;-83
2022/10/23 03:29:11;;;;;;;;;;;;;;;13.92;48.49;100970.94;5028146;28;20023;-81
2022/10/23 03:31:36;;;;;;;;;;;;;;;13.94;48.10;100981.56;5039811;28;20436;-84
2022/10/23 03:34:01;;;;;;;;;;;;;;;13.89;48.55;100992.06;5034808;28;19921;-87
2022/10/23 03:36:26;;;;;;;;;;;;;;;13.84;48.90;101006.09;5024833;28;19944;-83
2022/10/23 03:38:52;;;;;;;;;;;;;;;13.83;49.11;101011.69;5029717;28;19931;-83
2022/10/23 03:41:17;;;;;;;;;;;;;;;13.90;49.22;101009.97;5029646;28;19921;-82
2022/10/23 03:43:42;;;;;;;;;;;;;;;13.88;49.18;101017.41;5017580;28;19924;-82
2022/10/23 03:46:11;;;;;;;;;;;;;;;13.79;49.72;101021.16;5025535;28;19921;-83
2022/10/23 03:48:37;;;;;;;;;;;;;;;13.71;49.48;101027.41;5032105;28;20016;-83
2022/10/23 03:51:03;;;;;;;;;;;;;;;13.79;49.52;101011.19;5024882;28;20008;-84
2022/10/23 03:53:28;;;;;;;;;;;;;;;13.70;49.68;101002.25;5043048;28;19936;-83
2022/10/23 03:55:53;;;;;;;;;;;;;;;13.73;49.67;100993.81;5036921;28;19924;-83
2022/10/23 03:58:19;;;;;;;;;;;;;;;13.77;49.67;101001.59;5046222;28;19933;-82
2022/10/23 04:00:44;;;;;;;;;;;;;;;13.76;50.20;100997.19;5026506;28;20346;-82
2022/10/23 04:03:10;;;;;;;;;;;;;;;13.72;50.48;101000.22;5025812;28;19932;-80
2022/10/23 04:05:36;;;;;;;;;;;;;;;13.62;50.84;100991.47;5041069;28;20269;-84
2022/10/23 04:08:01;;;;;;;;;;;;;;;13.23;51.60;101003.00;5033910;28;19925;-82
2022/10/23 04:10:28;;;;;;;;;;;;;;;13.01;52.02;100992.88;5026096;28;19932;-82
2022/10/23 04:12:54;;;;;;;;;;;;;;;12.91;52.61;101003.84;5035087;28;19921;-81
2022/10/23 04:15:21;;;;;;;;;;;;;;;12.88;52.61;100998.78;5028346;28;19932;-82
2022/10/23 04:17:47;;;;;;;;;;;;;;;12.68;52.85;101012.56;5010497;28;19978;-83
2022/10/23 04:20:12;;;;;;;;;;;;;;;12.65;53.10;101007.50;5041932;28;20019;-83
2022/10/23 04:22:37;;;;;;;;;;;;;;;12.56;53.29;101021.16;5027492;28;19932;-85
2022/10/23 04:25:03;;;;;;;;;;;;;;;12.65;52.66;101014.78;5027186;28;19921;-83
2022/10/23 04:27:28;;;;;;;;;;;;;;;12.58;52.92;101013.75;5040325;28;19928;-82
2022/10/23 04:29:53;;;;;;;;;;;;;;;12.55;52.89;101020.31;5031973;28;20620;-82
2022/10/23 04:32:19;;;;;;;;;;;;;;;12.54;53.30;101029.41;5011331;28;19921;-83
2022/10/23 04:34:45;;;;;;;;;;;;;;;12.55;53.17;101032.94;5030824;28;20281;-83
2022/10/23 04:37:12;;;;;;;;;;;;;;;12.52;53.34;101030.56;5004777;28;19987;-82
2022/10/23 04:39:37;;;;;;;;;;;;;;;12.58;53.03;101024.53;5034895;28;20357;-83
2022/10/23 04:42:02;;;;;;;;;;;;;;;12.61;52.89;101034.97;4996077;28;19971;-83
2022/10/23 04:44:28;;;;;;;;;;;;;;;12.60;52.70;101033.31;5028256;28;20472;-83
2022/10/23 04:46:54;;;;;;;;;;;;;;;12.61;52.78;101026.88;5002201;28;19932;-83
2022/10/23 04:49:19;;;;;;;;;;;;;;;12.64;52.56;101024.72;5027705;28;20309;-82
2022/10/23 04:51:44;;;;;;;;;;;;;;;12.52;52.82;101026.00;5008793;28;20074;-83
2022/10/23 04:54:10;;;;;;;;;;;;;;;12.49;52.82;101020.97;5030528;28;20432;-83
2022/10/23 04:56:35;;;;;;;;;;;;;;;12.62;52.80;101024.03;5016656;28;19957;-81
2022/10/23 04:59:01;;;;;;;;;;;;;;;12.51;53.21;101020.81;5040792;28;19925;-82
2022/10/23 05:01:26;;;;;;;;;;;;;;;12.50;52.98;101022.63;5036668;28;19921;-82
2022/10/23 05:03:52;;;;;;;;;;;;;;;12.53;52.90;101033.13;5028636;28;19917;-81
2022/10/23 05:06:19;;;;;;;;;;;;;;;12.58;52.79;101035.31;5008256;28;20020;-81
2022/10/23 05:08:46;;;;;;;;;;;;;;;12.56;52.77;101035.47;5028713;28;19948;-84
2022/10/23 05:11:11;;;;;;;;;;;;;;;12.62;52.57;101036.69;5036029;28;19944;-83
2022/10/23 05:13:37;;;;;;;;;;;;;;;12.58;52.86;101040.72;5051739;28;19940;-83
2022/10/23 05:16:02;;;;;;;;;;;;;;;12.57;52.98;101039.00;5022048;28;19926;-84
2022/10/23 05:18:27;;;;;;;;;;;;;;;12.65;52.55;101047.13;5024715;28;19975;-84
2022/10/23 05:20:54;;;;;;;;;;;;;;;12.87;52.00;101041.09;5014597;28;20022;-82
2022/10/23 05:23:19;;;;;;;;;;;;;;;13.01;51.46;101050.38;5019099;28;20059;-82
2022/10/23 05:25:45;;;;;;;;;;;;;;;13.02;51.32;101044.00;5006894;28;19922;-83
2022/10/23 05:28:10;;;;;;;;;;;;;;;13.16;50.73;101045.19;5008371;28;19933;-83
2022/10/23 05:30:35;;;;;;;;;;;;;;;13.33;50.31;101046.06;5012768;28;19928;-82
2022/10/23 05:33:01;;;;;;;;;;;;;;;13.47;49.58;101041.81;5035313;28;19936;-81
2022/10/23 05:35:26;;;;;;;;;;;;;;;13.53;49.40;101043.81;5012214;28;19925;-80
2022/10/23 05:37:52;;;;;;;;;;;;;;;13.74;48.83;101059.50;5027670;28;19947;-82
2022/10/23 05:40:18;;;;;;;;;;;;;;;13.88;48.64;101060.66;5033491;28;20001;-81
2022/10/23 05:42:44;;;;;;;;;;;;;;;14.08;48.53;101061.09;5011533;28;19967;-84
2022/10/23 05:45:09;;;;;;;;;;;;;;;14.07;48.10;101068.38;5006546;28;21703;-85
2022/10/23 05:47:36;;;;;;;;;;;;;;;14.29;47.83;101063.22;5028796;28;19975;-85
2022/10/23 05:50:01;;;;;;;;;;;;;;;14.45;47.38;101059.63;5025193;28;19921;-84
2022/10/23 05:52:26;;;;;;;;;;;;;;;14.71;46.92;101064.75;5041408;28;20007;-80
2022/10/23 05:54:52;;;;;;;;;;;;;;;14.92;46.68;101067.66;5014550;28;20019;-86
2022/10/23 05:57:17;;;;;;;;;;;;;;;15.15;46.13;101069.53;5038313;28;20380;-86
2022/10/23 05:59:43;;;;;;;;;;;;;;;15.34;45.76;101077.16;5031833;28;19921;-85
2022/10/23 06:02:08;;;;;;;;;;;;;;;15.50;45.70;101073.47;5041996;28;19932;-85
2022/10/23 06:04:34;;;;;;;;;;;;;;;15.56;45.33;101082.72;5026556;28;19956;-86
2022/10/23 06:07:01;;;;;;;;;;;;;;;15.58;45.56;101069.81;5034731;28;19925;-86
2022/10/23 06:09:27;;;;;;;;;;;;;;;15.73;45.45;101086.13;5035699;28;19917;-86
2022/10/23 06:11:54;;;;;;;;;;;;;;;15.78;45.84;101081.00;5038102;28;20035;-85
2022/10/23 06:14:21;;;;;;;;;;;;;;;15.76;46.88;101073.06;5019721;28;19979;-87
2022/10/23 06:16:48;;;;;;;;;;;;;;;15.92;46.83;101082.03;5029165;28;19995;-83
2022/10/23 06:19:13;;;;;;;;;;;;;;;15.92;46.37;101071.19;5034169;28;20008;-84
2022/10/23 06:21:40;;;;;;;;;;;;;;;16.06;46.50;101080.38;5009413;28;20092;-87
2022/10/23 06:24:07;;;;;;;;;;;;;;;16.11;45.39;101083.38;5049836;28;19920;-85
2022/10/23 06:26:32;;;;;;;;;;;;;;;16.25;45.14;101082.53;5027083;28;19999;-83
2022/10/23 06:28:58;;;;;;;;;;;;;;;16.32;44.79;101080.75;5033657;28;19972;-84
2022/10/23 06:31:27;;;;;;;;;;;;;;;16.36;44.74;101075.78;5027204;28;20102;-85
2022/10/23 06:33:57;;;;;;;;;;;;;;;16.51;44.43;101086.63;5020034;28;19936;-84
2022/10/23 06:36:23;;;;;;;;;;;;;;;16.61;44.54;101090.72;5037561;28;19940;-85
2022/10/23 06:38:48;;;;;;;;;;;;;;;16.59;44.71;101078.38;5026296;28;20388;-87
2022/10/23 06:41:15;;;;;;;;;;;;;;;16.68;45.02;101088.91;5018522;28;20030;-85
2022/10/23 06:43:45;;;;;;;;;;;;;;;16.89;44.54;101084.59;5008478;28;19929;-85
2022/10/23 06:46:10;;;;;;;;;;;;;;;17.75;43.20;101086.41;5034647;28;20029;-85
2022/10/23 06:48:37;;;;;;;;;;;;;;;20.31;38.56;101073.84;5043934;28;19999;-85
2022/10/23 06:51:04;;;;;;;;;;;;;;;22.69;33.81;101074.06;5025484;28;19951;-85
2022/10/23 06:53:32;;;;;;;;;;;;;;;24.61;31.17;101072.72;5012037;28;19922;-87
2022/10/23 06:55:58;;;;;;;;;;;;;;;25.79;29.29;101071.22;5012706;28;19917;-86
2022/10/23 06:58:24;;;;;;;;;;;;;;;25.35;30.06;101054.53;5008227;28;20040;-85
2022/10/23 07:00:55;;;;;;;;;;;;;;;25.73;29.48;101081.31;5027460;28;21408;-86
2022/10/23 07:03:20;;;;;;;;;;;;;;;24.23;31.84;101081.47;5030736;28;19983;-86
2022/10/23 07:05:46;;;;;;;;;;;;;;;23.73;32.75;101080.06;5030895;28;19917;-84
2022/10/23 07:08:18;;;;;;;;;;;;;;;24.25;32.11;101087.56;5033285;28;20273;-86
2022/10/23 07:10:44;;;;;;;;;;;;;;;25.51;30.11;101094.16;5032257;28;19925;-83
2022/10/23 07:13:11;;;;;;;;;;;;;;;26.61;28.22;101094.41;5024999;28;21073;-83
2022/10/23 07:15:37;;;;;;;;;;;;;;;27.13;27.46;101072.63;5027346;28;20321;-85
2022/10/23 07:18:02;;;;;;;;;;;;;;;27.79;26.96;101066.00;5035517;28;19921;-85
2022/10/23 07:20:28;;;;;;;;;;;;;;;28.71;25.78;101076.75;5019669;28;19976;-85
2022/10/23 07:22:54;;;;;;;;;;;;;;;29.04;25.09;101078.19;5041909;28;20278;-84
2022/10/23 07:25:24;;;;;;;;;;;;;;;28.90;25.04;101077.06;5041322;28;19972;-83
2022/10/23 07:27:54;;;;;;;;;;;;;;;28.27;26.15;101079.84;5040647;28;19917;-87
2022/10/23 07:30:29;;;;;;;;;;;;;;;28.14;25.73;101079.25;5020871;28;20424;-83
2022/10/23 07:32:56;;;;;;;;;;;;;;;28.93;24.94;101082.03;5021003;28;19921;-87
2022/10/23 07:35:21;;;;;;;;;;;;;;;28.71;25.09;101085.88;5027617;28;19924;-84
2022/10/23 07:37:47;;;;;;;;;;;;;;;28.83;25.59;101093.91;5025552;28;19917;-91
2022/10/23 07:40:13;;;;;;;;;;;;;;;29.87;23.74;101085.41;5030369;28;19956;-88
2022/10/23 07:43:21;;;;;;;;;;;;;;;;;;;;;
2022/10/23 07:45:55;;;;;;;;;;;;;;;28.72;25.66;101093.03;4980240;28;19929;-90
2022/10/23 07:48:22;;;;;;;;;;;;;;;28.73;25.60;101088.34;5019387;28;20185;-84
2022/10/23 07:50:48;;;;;;;;;;;;;;;29.29;24.93;101098.72;5035059;28;19925;-87
2022/10/23 07:53:18;;;;;;;;;;;;;;;29.27;25.13;101099.00;5022017;28;19927;-87
2022/10/23 07:55:50;;;;;;;;;;;;;;;30.05;23.87;101114.50;5026043;28;20013;-89
2022/10/23 07:58:15;;;;;;;;;;;;;;;29.44;25.04;101126.44;5031606;28;19931;-83
2022/10/23 08:00:50;;;;;;;;;;;;;;;29.96;24.57;101130.84;5019362;28;19935;-85
2022/10/23 08:03:16;;;;;;;;;;;;;;;30.45;23.82;101129.38;4999584;28;19922;-87
2022/10/23 08:05:42;;;;;;;;;;;;;;;31.44;22.98;101139.69;4997165;28;22000;-85
2022/10/23 08:08:09;;;;;;;;;;;;;;;30.79;23.45;101140.63;5035863;28;19928;-87
2022/10/23 08:10:34;;;;;;;;;;;;;;;31.36;23.11;101143.09;5023409;28;19921;-87
2022/10/23 08:13:05;;;;;;;;;;;;;;;30.98;23.63;101142.78;5014151;28;20094;-93
2022/10/23 08:15:40;;;;;;;;;;;;;;;31.16;23.00;101127.38;5032344;28;19929;-92
2022/10/23 08:27:12;;;;;;;;;;;;;;;31.71;22.27;101133.66;5030632;28;19973;-91
2022/10/23 08:29:41;;;;;;;;;;;;;;;31.14;23.24;101136.00;4988211;28;19990;-91
2022/10/23 08:32:07;;;;;;;;;;;;;;;32.49;21.91;101137.31;5035269;28;19983;-90
2022/10/23 08:34:36;;;;;;;;;;;;;;;33.01;20.90;101141.94;5055508;28;19921;-87
2022/10/23 08:37:01;;;;;;;;;;;;;;;32.95;20.82;101139.53;5054794;28;19937;-89
2022/10/23 08:39:27;;;;;;;;;;;;;;;32.80;20.72;101154.47;5033840;28;20520;-90
2022/10/23 08:41:55;;;;;;;;;;;;;;;32.80;20.60;101137.75;5002095;28;20388;-91
2022/10/23 08:44:20;;;;;;;;;;;;;;;33.59;19.86;101145.53;4996128;28;19931;-95
2022/10/23 08:46:49;;;;;;;;;;;;;;;33.87;19.91;101140.06;5044953;28;20373;-91
2022/10/23 08:49:21;;;;;;;;;;;;;;;34.59;18.97;101136.72;5019592;28;20087;-91
2022/10/23 08:51:49;;;;;;;;;;;;;;;35.70;17.91;101135.28;5027195;28;19921;-92
2022/10/23 08:54:20;;;;;;;;;;;;;;;36.84;16.91;101131.00;5012605;28;19936;-93
2022/10/23 08:59:49;;;;;;;;;;;;;;;38.41;15.36;101142.81;5087152;22;19949;-92
2022/10/23 09:02:20;;;;;;;;;;;;;;;37.99;15.54;101148.25;4977164;28;19926;-95
2022/10/23 09:04:47;;;;;;;;;;;;;;;38.46;15.53;101152.22;5008422;28;20417;-90
2022/10/23 09:07:32;;;;;;;;;;;;;;;37.50;16.06;101150.47;5011005;28;20382;-89
2022/10/23 09:10:17;;;;;;;;;;;;;;;38.37;15.51;101172.72;5000142;28;20504;-87
2022/10/23 09:12:42;;;;;;;;;;;;;;;38.97;14.97;101169.97;5000004;28;19926;-88
2022/10/23 09:15:27;;;;;;;;;;;;;;;37.39;15.89;101163.19;5000649;28;19948;-84
2022/10/23 09:17:54;;;;;;;;;;;;;;;37.79;15.75;101165.78;5008829;28;19944;-87
2022/10/23 09:20:23;;;;;;;;;;;;;;;38.84;14.92;101166.22;5014013;28;19972;-89
2022/10/23 09:22:54;;;;;;;;;;;;;;;37.76;15.49;101158.06;5005961;28;19921;-88
2022/10/23 09:25:41;;;;;;;;;;;;;;;37.20;16.50;101160.72;5008665;28;19922;-87
2022/10/23 09:28:12;;;;;;;;;;;;;;;37.67;16.05;101165.66;5000413;28;20631;-86
2022/10/23 09:30:38;;;;;;;;;;;;;;;37.24;16.58;101161.72;4998384;28;19928;-89
2022/10/23 09:33:19;;;;;;;;;;;;;;;37.11;16.40;101157.09;5004717;28;20000;-92
2022/10/23 09:35:59;;;;;;;;;;;;;;;37.74;15.96;101175.22;5008265;28;19929;-84
2022/10/23 09:38:38;;;;;;;;;;;;;;;37.90;15.48;101171.88;5000473;28;20012;-90
2022/10/23 09:41:23;;;;;;;;;;;;;;;37.10;16.04;101183.47;5008511;28;19929;-86
2022/10/23 09:44:00;;;;;;;;;;;;;;;35.23;18.04;101199.03;5009240;28;19940;-88
2022/10/23 09:46:38;;;;;;;;;;;;;;;36.08;17.37;101209.53;5007359;28;19925;-87
2022/10/23 09:49:03;;;;;;;;;;;;;;;37.05;16.30;101195.63;5011242;28;19924;-86
2022/10/23 09:51:28;;;;;;;;;;;;;;;37.77;15.95;101191.41;5009708;28;19918;-86
2022/10/23 09:53:55;;;;;;;;;;;;;;;39.27;14.51;101193.22;4996622;28;19929;-85
2022/10/23 09:56:24;;;;;;;;;;;;;;;40.07;13.88;101192.16;5026125;28;19921;-88
2022/10/23 09:58:54;;;;;;;;;;;;;;;39.19;14.63;101188.47;5015517;28;20004;-86
2022/10/23 10:01:46;;;;;;;;;;;;;;;40.85;13.88;101191.16;5008341;28;20005;-86
2022/10/23 10:04:12;;;;;;;;;;;;;;;39.49;13.99;101180.00;5003551;28;19918;-86
2022/10/23 10:06:39;;;;;;;;;;;;;;;39.64;14.24;101187.75;5016943;28;19932;-88
2022/10/23 10:09:06;;;;;;;;;;;;;;;39.22;14.34;101184.97;5009458;28;20048;-85
2022/10/23 10:11:41;;;;;;;;;;;;;;;39.99;13.95;101198.69;5001757;28;20032;-86
2022/10/23 10:14:19;;;;;;;;;;;;;;;40.69;13.10;101196.69;4998723;28;19968;-86
2022/10/23 10:16:45;;;;;;;;;;;;;;;40.77;13.28;101194.94;5006986;28;19979;-87
2022/10/23 10:19:10;;;;;;;;;;;;;;;40.29;13.46;101193.72;5027404;28;19933;-87
2022/10/23 10:21:44;;;;;;;;;;;;;;;39.38;14.21;101196.44;5009176;28;19922;-87
2022/10/23 10:24:15;;;;;;;;;;;;;;;37.43;16.07;101185.78;4996467;28;19918;-90
2022/10/23 10:26:43;;;;;;;;;;;;;;;38.84;14.86;101183.06;5002097;28;20437;-89
2022/10/23 10:29:17;;;;;;;;;;;;;;;39.80;14.06;101179.50;5001402;28;19929;-88
2022/10/23 10:31:58;;;;;;;;;;;;;;;38.80;14.71;101168.09;5003669;28;19933;-88
2022/10/23 10:34:51;;;;;;;;;;;;;;;37.10;15.85;101167.47;5009563;28;20012;-87
2022/10/23 10:37:19;;;;;;;;;;;;;;;36.52;16.38;101179.81;4976833;28;20306;-87
2022/10/23 10:39:44;;;;;;;;;;;;;;;37.44;15.71;101171.44;4991947;28;19976;-88
2022/10/23 10:42:09;;;;;;;;;;;;;;;38.80;15.34;101179.31;5000037;28;19957;-86
2022/10/23 10:44:44;;;;;;;;;;;;;;;39.29;14.34;101181.59;5011799;28;19918;-86
2022/10/23 10:47:09;;;;;;;;;;;;;;;37.06;15.85;101177.69;4998573;28;20354;-86
2022/10/23 10:49:37;;;;;;;;;;;;;;;37.70;15.25;101176.22;4995993;28;19962;-85
2022/10/23 10:52:22;;;;;;;;;;;;;;;37.97;15.39;101178.63;4985046;28;19922;-86
2022/10/23 10:54:51;;;;;;;;;;;;;;;39.19;14.24;101188.47;4993214;28;19921;-83
2022/10/23 10:57:30;;;;;;;;;;;;;;;38.48;14.71;101178.00;4995869;28;19967;-86
2022/10/23 10:59:58;;;;;;;;;;;;;;;38.92;14.27;101167.38;4991448;28;19925;-86
2022/10/23 11:02:34;;;;;;;;;;;;;;;38.61;14.71;101180.59;4978965;28;20279;-85
2022/10/23 11:05:08;;;;;;;;;;;;;;;39.09;14.12;101172.84;4994134;28;20286;-86
2022/10/23 11:07:37;;;;;;;;;;;;;;;39.20;14.05;101157.22;4996469;28;19925;-86
2022/10/23 11:10:04;;;;;;;;;;;;;;;39.78;13.51;101167.75;4993577;28;19926;-86
2022/10/23 11:12:29;;;;;;;;;;;;;;;38.19;14.77;101157.13;4993535;28;19944;-86
2022/10/23 11:14:55;;;;;;;;;;;;;;;38.84;14.48;101167.06;5000912;28;20394;-87
2022/10/23 11:17:25;;;;;;;;;;;;;;;39.08;14.18;101174.03;4998873;28;19921;-87
2022/10/23 11:20:05;;;;;;;;;;;;;;;38.71;14.24;101162.50;4995216;28;19918;-87
2022/10/23 11:22:34;;;;;;;;;;;;;;;38.12;15.08;101173.66;4997738;28;20008;-87
2022/10/23 11:25:18;;;;;;;;;;;;;;;37.93;14.91;101172.06;5000512;28;19922;-87
2022/10/23 11:28:02;;;;;;;;;;;;;;;37.48;15.36;101172.41;4996982;28;20053;-87
2022/10/23 11:30:46;;;;;;;;;;;;;;;37.16;15.44;101171.78;4997493;28;19924;-87
2022/10/23 11:33:28;;;;;;;;;;;;;;;37.22;15.28;101169.63;5010499;28;20002;-88
2022/10/23 11:36:13;;;;;;;;;;;;;;;35.22;17.40;101177.00;5010831;28;20367;-86
2022/10/23 11:38:39;;;;;;;;;;;;;;;35.62;17.38;101174.38;5004356;28;20366;-86
2022/10/23 11:41:25;;;;;;;;;;;;;;;35.89;16.58;101177.03;5002458;28;19960;-85
2022/10/23 11:43:52;;;;;;;;;;;;;;;34.95;17.57;101161.91;5005472;28;20303;-87
2022/10/23 11:46:20;;;;;;;;;;;;;;;34.29;17.97;101161.31;5005918;28;19932;-86
2022/10/23 11:48:46;;;;;;;;;;;;;;;33.21;19.13;101165.88;5006459;28;19917;-87
2022/10/23 11:51:30;;;;;;;;;;;;;;;32.84;19.33;101168.63;5005028;28;20016;-86
2022/10/23 11:54:12;;;;;;;;;;;;;;;31.85;20.91;101184.66;5005277;28;19918;-87
2022/10/23 11:56:37;;;;;;;;;;;;;;;30.62;22.25;101168.69;4998930;28;19925;-86
2022/10/23 11:59:30;;;;;;;;;;;;;;;30.32;22.78;101177.97;4995049;28;19928;-85
2022/10/23 12:02:15;;;;;;;;;;;;;;;30.24;22.65;101175.72;4989574;28;20053;-86
2022/10/23 12:04:45;;;;;;;;;;;;;;;30.09;22.99;101193.22;5013173;28;19953;-86
2022/10/23 12:07:25;;;;;;;;;;;;;;;29.96;23.08;101183.53;5021166;28;19926;-84
2022/10/23 12:09:53;;;;;;;;;;;;;;;29.39;23.78;101202.03;5018078;28;20408;-86
2022/10/23 12:12:24;;;;;;;;;;;;;;;28.86;24.40;101197.69;5007891;28;19925;-85
2022/10/23 12:14:50;;;;;;;;;;;;;;;28.40;24.78;101185.25;5004303;28;19979;-86
2022/10/23 12:17:21;;;;;;;;;;;;;;;28.36;25.08;101195.19;5002650;28;20067;-86
2022/10/23 12:19:47;;;;;;;;;;;;;;;28.60;24.67;101195.63;5007574;28;20019;-87
2022/10/23 12:22:12;;;;;;;;;;;;;;;28.96;24.20;101197.72;4998427;28;19929;-87
2022/10/23 12:24:56;;;;;;;;;;;;;;;28.72;24.76;101189.88;4992615;28;19917;-87
2022/10/23 12:27:29;;;;;;;;;;;;;;;28.17;25.33;101192.03;5003871;28;19976;-86
2022/10/23 12:30:13;;;;;;;;;;;;;;;27.79;25.88;101196.69;5011676;28;19921;-87
2022/10/23 12:32:59;;;;;;;;;;;;;;;27.67;26.12;101204.28;5007050;28;19957;-84
2022/10/23 12:35:30;;;;;;;;;;;;;;;27.94;26.32;101198.75;5007343;28;19918;-88
2022/10/23 12:38:18;;;;;;;;;;;;;;;28.06;25.57;101200.50;5006487;28;19933;-87
2022/10/23 12:40:44;;;;;;;;;;;;;;;28.10;25.81;101196.13;5004967;28;20378;-86
2022/10/23 12:43:23;;;;;;;;;;;;;;;27.54;26.03;101200.03;4988377;28;19980;-87
2022/10/23 12:45:49;;;;;;;;;;;;;;;27.36;26.43;101204.00;5006335;28;20060;-86
2022/10/23 12:48:18;;;;;;;;;;;;;;;27.36;26.51;101203.16;5003003;28;20043;-87
2022/10/23 12:50:49;;;;;;;;;;;;;;;27.49;26.73;101205.50;4990795;28;20070;-87
2022/10/23 12:53:15;;;;;;;;;;;;;;;27.46;26.84;101202.44;5002688;28;19925;-86
2022/10/23 12:55:55;;;;;;;;;;;;;;;27.25;27.17;101206.91;5005771;28;20009;-85
2022/10/23 12:58:29;;;;;;;;;;;;;;;27.26;26.99;101203.06;4996752;28;21017;-86
2022/10/23 13:00:56;;;;;;;;;;;;;;;27.01;27.45;101212.66;5006191;28;19979;-87
2022/10/23 13:03:22;;;;;;;;;;;;;;;26.75;27.56;101219.78;5006442;28;20077;-85